»·PEaware :: N92FC KDAG-KCEC

N92FC :: KDAG-KCEC

FLIGHT INFORMATION

Flight Status: Arrived
Operator: Privately registered:
United States
More flights under this callsign
Pilot: Walter H. (552)
Aircraft: BEECH AIRCRAFT A90-E90 KING AIR
(BE9L)
More flights by this aircraft type
Origin: KDAG Barstow-Daggett
United States
Destination: KCEC McNamara
United States
More flights between these airports :: More routes between these airports
Route: ++OLJEK
File this flight plan on PilotEdge
Remarks:
Altitude:
(Current/Filed)
11,000ft
Speed:
(Current/Filed)
233kts
Departed: 22-Apr-18 05:46 PM
Arrived: 22-Apr-18 08:54 PM
Distance/Time
Traveled:
543nm/3:08
Distance/Time
To Go:
Arrived

Flight Plot

Page will automatically refresh every two minutes.

Flight plan parsing failed; only flown route is shown


Map Options




Map Legend


Flown Route
Filed Route
Departure Airport
Arrival Airport
Navaid (VOR, NDB)
Fix

Horizontal Profiles

Position Reports

Time Latitude Longitude Heading Altitude Ground
Speed
22-Apr-18 17:26 34.855767 -116.791108 143 1919ft 0kts
22-Apr-18 17:27 34.855767 -116.791108 143 1919ft 0kts
22-Apr-18 17:28 34.855767 -116.791108 143 1919ft 0kts
22-Apr-18 17:29 34.855767 -116.791108 143 1919ft 0kts
22-Apr-18 17:30 34.855767 -116.791108 143 1919ft 0kts
22-Apr-18 17:31 34.855767 -116.791108 143 1919ft 0kts
22-Apr-18 17:32 34.855767 -116.791108 143 1919ft 0kts
22-Apr-18 17:33 34.855767 -116.791108 143 1919ft 0kts
22-Apr-18 17:34 34.855767 -116.791108 143 1919ft 0kts
22-Apr-18 17:35 34.855767 -116.791108 143 1919ft 0kts
22-Apr-18 17:36 34.855767 -116.791108 143 1919ft 0kts
22-Apr-18 17:37 34.855767 -116.791108 143 1919ft 0kts
22-Apr-18 17:38 34.855767 -116.791108 143 1919ft 0kts
22-Apr-18 17:39 34.855767 -116.791108 143 1919ft 0kts
22-Apr-18 17:40 34.855767 -116.791108 143 1919ft 0kts
22-Apr-18 17:41 34.855767 -116.791107 143 1919ft 0kts
22-Apr-18 17:42 34.855767 -116.791107 143 1919ft 0kts
22-Apr-18 17:43 34.854352 -116.790540 141 1919ft 0kts
22-Apr-18 17:44 34.854352 -116.790540 141 1919ft 0kts
22-Apr-18 17:45 34.862557 -116.776274 48 2073ft 128kts
22-Apr-18 17:46 34.883528 -116.736491 53 3591ft 140kts
22-Apr-18 17:47 34.908487 -116.707155 336 5171ft 126kts
22-Apr-18 17:48 34.902536 -116.740575 234 6604ft 131kts
22-Apr-18 17:49 34.885778 -116.779459 252 8131ft 134kts
22-Apr-18 17:50 34.875085 -116.822690 257 9450ft 137kts
22-Apr-18 17:51 34.865849 -116.867999 258 10481ft 140kts
22-Apr-18 17:52 34.856781 -116.914801 258 11418ft 144kts
22-Apr-18 17:53 34.847579 -116.962775 258 12284ft 147kts
22-Apr-18 17:54 34.838175 -117.011805 258 13107ft 150kts
22-Apr-18 17:55 34.829556 -117.056656 258 13903ft 148kts
22-Apr-18 17:56 34.821219 -117.100058 258 14312ft 165kts
22-Apr-18 17:57 34.810597 -117.155119 258 15032ft 167kts
22-Apr-18 17:58 34.800466 -117.207538 258 15534ft 173kts
22-Apr-18 17:59 34.789840 -117.262383 258 15973ft 181kts
22-Apr-18 18:00 34.777940 -117.323649 258 15986ft 190kts
22-Apr-18 18:01 34.765621 -117.386854 258 15989ft 194kts
22-Apr-18 18:02 34.753104 -117.450879 258 15987ft 195kts
22-Apr-18 18:03 34.740485 -117.515229 258 15986ft 196kts
22-Apr-18 18:04 34.728053 -117.578441 258 15988ft 196kts
22-Apr-18 18:05 34.715318 -117.643000 258 15984ft 196kts
22-Apr-18 18:06 34.702660 -117.706990 257 15973ft 196kts
22-Apr-18 18:07 34.689857 -117.771513 257 15965ft 196kts
22-Apr-18 18:08 34.677039 -117.835917 257 15958ft 196kts
22-Apr-18 18:09 34.664190 -117.900291 257 15966ft 196kts
22-Apr-18 18:10 34.651317 -117.964593 257 15976ft 196kts
22-Apr-18 18:11 34.638430 -118.028779 257 15986ft 196kts
22-Apr-18 18:12 34.650413 -118.085682 313 16001ft 189kts
22-Apr-18 18:13 34.686745 -118.132281 315 15998ft 190kts
22-Apr-18 18:14 34.724260 -118.179092 315 15997ft 200kts
22-Apr-18 18:15 34.763662 -118.228145 315 15993ft 204kts
22-Apr-18 18:16 34.803552 -118.277857 315 15991ft 206kts
22-Apr-18 18:17 34.843494 -118.327701 315 15991ft 206kts
22-Apr-18 18:18 34.883226 -118.377359 315 16011ft 205kts
22-Apr-18 18:19 34.922583 -118.426606 315 16113ft 200kts
22-Apr-18 18:20 34.961313 -118.475131 314 16142ft 199kts
22-Apr-18 18:21 34.999854 -118.523499 312 16157ft 199kts
22-Apr-18 18:22 35.038506 -118.572090 310 16163ft 201kts
22-Apr-18 18:23 35.077703 -118.621474 310 16156ft 203kts
22-Apr-18 18:24 35.116126 -118.669916 310 16133ft 203kts
22-Apr-18 18:25 35.154412 -118.718254 310 16094ft 203kts
22-Apr-18 18:26 35.193206 -118.758758 339 16050ft 210kts
22-Apr-18 18:27 35.249167 -118.778990 339 16016ft 210kts
22-Apr-18 18:28 35.304904 -118.799136 339 16002ft 209kts
22-Apr-18 18:29 35.360591 -118.819291 339 16000ft 209kts
22-Apr-18 18:30 35.416186 -118.839441 339 16000ft 208kts
22-Apr-18 18:31 35.471701 -118.859593 339 16000ft 208kts
22-Apr-18 18:32 35.526999 -118.879694 339 16000ft 208kts
22-Apr-18 18:33 35.582249 -118.899805 339 16001ft 207kts
22-Apr-18 18:34 35.637516 -118.919955 339 16003ft 207kts
22-Apr-18 18:35 35.692667 -118.940089 340 16006ft 207kts
22-Apr-18 18:36 35.747566 -118.960160 340 16010ft 206kts
22-Apr-18 18:37 35.802612 -118.980313 340 16015ft 206kts
22-Apr-18 18:38 35.857367 -119.000390 340 16009ft 206kts
22-Apr-18 18:39 35.912314 -119.020632 338 16008ft 205kts
22-Apr-18 18:40 35.965457 -119.045732 336 16009ft 205kts
22-Apr-18 18:41 36.018596 -119.070986 335 16009ft 204kts
22-Apr-18 18:42 36.071589 -119.096219 335 16009ft 204kts
22-Apr-18 18:43 36.115298 -119.117059 335 16008ft 204kts
22-Apr-18 18:44 36.168340 -119.142381 335 16008ft 204kts
22-Apr-18 18:45 36.221385 -119.167743 335 16008ft 204kts
22-Apr-18 18:46 36.274512 -119.193182 335 16008ft 204kts
22-Apr-18 18:47 36.327422 -119.218553 335 16008ft 204kts
22-Apr-18 18:48 36.380491 -119.244038 335 16008ft 204kts
22-Apr-18 18:49 36.433493 -119.269527 335 16008ft 204kts
22-Apr-18 18:50 36.486359 -119.294990 335 16008ft 204kts
22-Apr-18 18:51 36.539464 -119.320604 335 16008ft 204kts
22-Apr-18 18:52 36.600587 -119.350132 335 16008ft 204kts
22-Apr-18 18:53 36.644740 -119.371495 335 16008ft 204kts
22-Apr-18 18:54 36.697555 -119.397082 335 16008ft 204kts
22-Apr-18 18:55 36.750590 -119.422814 335 16008ft 204kts
22-Apr-18 18:56 36.803337 -119.448444 335 16008ft 204kts
22-Apr-18 18:57 36.856264 -119.474201 335 16008ft 205kts
22-Apr-18 18:58 36.909232 -119.500016 335 16008ft 205kts
22-Apr-18 18:59 36.962243 -119.525890 335 16008ft 205kts
22-Apr-18 19:00 37.015166 -119.551758 335 16008ft 206kts
22-Apr-18 19:01 37.068674 -119.577956 335 16009ft 208kts
22-Apr-18 19:02 37.121469 -119.607425 328 16007ft 210kts
22-Apr-18 19:03 37.172579 -119.642854 328 16008ft 211kts
22-Apr-18 19:04 37.223070 -119.678001 327 16012ft 211kts
22-Apr-18 19:05 37.274363 -119.713771 327 16015ft 211kts
22-Apr-18 19:06 37.325728 -119.749645 327 16017ft 211kts
22-Apr-18 19:07 37.377079 -119.785570 327 16018ft 212kts
22-Apr-18 19:08 37.428368 -119.821505 327 16018ft 212kts
22-Apr-18 19:09 37.479904 -119.857671 327 16017ft 212kts
22-Apr-18 19:10 37.531080 -119.893642 327 16015ft 212kts
22-Apr-18 19:11 37.582380 -119.929756 327 16013ft 212kts
22-Apr-18 19:12 37.633408 -119.965727 326 16003ft 211kts
22-Apr-18 19:13 37.684452 -120.001787 326 16004ft 210kts
22-Apr-18 19:14 37.735430 -120.037848 326 16008ft 210kts
22-Apr-18 19:15 37.786376 -120.073945 326 16007ft 210kts
22-Apr-18 19:16 37.837431 -120.110174 326 16024ft 210kts
22-Apr-18 19:17 37.888156 -120.146227 326 16042ft 210kts
22-Apr-18 19:18 37.939017 -120.182436 326 16055ft 210kts
22-Apr-18 19:19 37.989770 -120.218627 326 16055ft 210kts
22-Apr-18 19:20 38.040645 -120.254960 326 16055ft 210kts
22-Apr-18 19:21 38.091547 -120.291372 326 16055ft 210kts
22-Apr-18 19:22 38.142279 -120.327718 326 16053ft 210kts
22-Apr-18 19:23 38.192981 -120.364104 326 16053ft 210kts
22-Apr-18 19:24 38.243771 -120.400613 326 16053ft 210kts
22-Apr-18 19:25 38.294417 -120.437076 326 16053ft 210kts
22-Apr-18 19:26 38.345169 -120.473675 326 16053ft 210kts
22-Apr-18 19:27 38.395925 -120.510337 326 16054ft 210kts
22-Apr-18 19:28 38.446568 -120.546976 326 16068ft 209kts
22-Apr-18 19:29 38.497146 -120.583629 326 16086ft 209kts
22-Apr-18 19:30 38.547605 -120.620255 326 16102ft 209kts
22-Apr-18 19:31 38.597770 -120.656727 325 16110ft 210kts
22-Apr-18 19:32 38.648476 -120.693651 325 16110ft 210kts
22-Apr-18 19:33 38.699122 -120.730592 325 16110ft 210kts
22-Apr-18 19:34 38.746683 -120.772539 316 16109ft 208kts
22-Apr-18 19:35 38.791002 -120.819243 316 16103ft 208kts
22-Apr-18 19:36 38.835565 -120.866356 316 16092ft 208kts
22-Apr-18 19:37 38.880264 -120.913702 316 16076ft 208kts
22-Apr-18 19:38 38.924644 -120.960785 316 16066ft 205kts
22-Apr-18 19:39 38.967856 -121.006735 317 16063ft 198kts
22-Apr-18 19:40 39.009720 -121.051325 319 16062ft 192kts
22-Apr-18 19:41 39.050367 -121.094664 321 16062ft 189kts
22-Apr-18 19:42 39.090573 -121.137568 322 16076ft 188kts
22-Apr-18 19:43 39.130614 -121.180383 322 16094ft 189kts
22-Apr-18 19:44 39.171172 -121.223812 322 16100ft 191kts
22-Apr-18 19:45 39.211371 -121.266930 322 16087ft 191kts
22-Apr-18 19:46 39.252311 -121.310914 322 16064ft 192kts
22-Apr-18 19:47 39.293321 -121.355044 322 16040ft 192kts
22-Apr-18 19:48 39.334285 -121.399194 322 16016ft 192kts
22-Apr-18 19:49 39.375392 -121.443569 322 15994ft 192kts
22-Apr-18 19:50 39.416278 -121.487776 322 16002ft 191kts
22-Apr-18 19:51 39.456918 -121.531785 322 15993ft 192kts
22-Apr-18 19:52 39.497809 -121.576137 322 15997ft 191kts
22-Apr-18 19:53 39.536205 -121.624017 318 15999ft 192kts
22-Apr-18 19:54 39.573398 -121.671943 317 15999ft 192kts
22-Apr-18 19:55 39.609518 -121.718674 317 15999ft 192kts
22-Apr-18 19:56 39.647410 -121.767792 317 15999ft 192kts
22-Apr-18 19:57 39.685137 -121.816779 317 15999ft 192kts
22-Apr-18 19:58 39.722862 -121.865843 317 15999ft 192kts
22-Apr-18 19:59 39.760575 -121.914973 317 15998ft 192kts
22-Apr-18 20:00 39.798326 -121.964233 317 15998ft 192kts
22-Apr-18 20:01 39.835937 -122.013394 317 15998ft 192kts
22-Apr-18 20:02 39.873599 -122.062699 317 15998ft 192kts
22-Apr-18 20:03 39.911218 -122.112032 317 15997ft 192kts
22-Apr-18 20:04 39.948935 -122.161575 317 15997ft 192kts
22-Apr-18 20:05 39.986477 -122.210969 317 15997ft 192kts
22-Apr-18 20:06 40.024133 -122.260596 317 15997ft 192kts
22-Apr-18 20:07 40.061644 -122.310114 317 15997ft 192kts
22-Apr-18 20:08 40.099201 -122.359775 317 15996ft 192kts
22-Apr-18 20:09 40.136430 -122.409079 317 16001ft 193kts
22-Apr-18 20:10 40.173962 -122.458872 317 16000ft 193kts
22-Apr-18 20:11 40.211667 -122.508979 317 15998ft 193kts
22-Apr-18 20:12 40.249114 -122.558817 317 15995ft 191kts
22-Apr-18 20:13 40.286371 -122.608504 317 15993ft 191kts
22-Apr-18 20:14 40.323433 -122.658008 316 15991ft 191kts
22-Apr-18 20:15 40.360617 -122.707754 316 15992ft 191kts
22-Apr-18 20:16 40.397785 -122.757561 316 15991ft 191kts
22-Apr-18 20:17 40.434832 -122.807291 316 15991ft 191kts
22-Apr-18 20:18 40.472047 -122.857331 316 15991ft 191kts
22-Apr-18 20:19 40.508958 -122.907046 316 15990ft 191kts
22-Apr-18 20:20 40.546258 -122.957368 316 15990ft 192kts
22-Apr-18 20:21 40.583738 -123.008019 316 15990ft 194kts
22-Apr-18 20:22 40.621419 -123.059029 316 15990ft 195kts
22-Apr-18 20:23 40.659338 -123.110450 316 15990ft 197kts
22-Apr-18 20:24 40.697386 -123.162141 316 16014ft 197kts
22-Apr-18 20:25 40.735568 -123.214103 316 16051ft 196kts
22-Apr-18 20:26 40.773418 -123.265700 316 16085ft 196kts
22-Apr-18 20:27 40.811413 -123.317588 316 16120ft 196kts
22-Apr-18 20:28 40.849236 -123.369332 316 16153ft 196kts
22-Apr-18 20:29 40.887031 -123.421127 316 16154ft 196kts
22-Apr-18 20:30 40.925040 -123.473308 316 16153ft 197kts
22-Apr-18 20:31 40.962892 -123.525364 316 16153ft 197kts
22-Apr-18 20:32 41.000683 -123.577434 316 15989ft 200kts
22-Apr-18 20:33 41.032786 -123.621742 317 15988ft 197kts
22-Apr-18 20:34 41.070821 -123.674301 316 15689ft 200kts
22-Apr-18 20:35 41.107844 -123.725561 317 14689ft 194kts
22-Apr-18 20:36 41.145386 -123.777602 316 13584ft 204kts
22-Apr-18 20:37 41.185617 -123.833492 316 12150ft 210kts
22-Apr-18 20:38 41.226621 -123.890562 315 9957ft 216kts
22-Apr-18 20:39 41.266378 -123.945996 315 8036ft 200kts
22-Apr-18 20:40 41.302640 -123.996730 315 7988ft 181kts
22-Apr-18 20:41 41.337349 -124.045304 315 7555ft 191kts
22-Apr-18 20:42 41.374789 -124.097798 316 6574ft 200kts
22-Apr-18 20:43 41.411985 -124.150102 317 5984ft 182kts
22-Apr-18 20:44 41.445373 -124.197071 318 5979ft 175kts
22-Apr-18 20:45 41.479267 -124.240011 346 5985ft 160kts
22-Apr-18 20:46 41.523506 -124.257461 346 4979ft 170kts
22-Apr-18 20:47 41.568964 -124.274842 347 3801ft 170kts
22-Apr-18 20:48 41.611441 -124.290383 357 2615ft 143kts
22-Apr-18 20:49 41.648673 -124.279166 14 2535ft 146kts
22-Apr-18 20:50 41.689168 -124.266561 14 1756ft 151kts
22-Apr-18 20:51 41.729653 -124.253930 14 950ft 149kts
22-Apr-18 20:52 41.767141 -124.242226 14 290ft 104kts
22-Apr-18 20:53 41.781205 -124.237826 16 56ft 0kts

Navigation Log

Ident Type
Flight plan parsing failed, navigation log unavailable